createdAt,value
2023-03-31T00:01:30.406Z,5.00
2023-03-31T00:04:54.069Z,3.90
2023-03-31T00:08:19.415Z,4.37
2023-03-31T00:11:43.077Z,4.90
2023-03-31T00:15:07.404Z,5.03
2023-03-31T00:18:31.227Z,5.40
2023-03-31T00:21:54.948Z,4.60
2023-03-31T00:25:19.973Z,6.33
2023-03-31T00:28:43.623Z,3.90
2023-03-31T00:32:07.485Z,4.30
2023-03-31T00:35:32.107Z,3.17
2023-03-31T00:38:56.403Z,3.00
2023-03-31T00:42:21.377Z,2.47
2023-03-31T00:45:46.085Z,3.20
2023-03-31T00:49:16.173Z,3.27
2023-03-31T00:52:40.393Z,3.77
2023-03-31T00:56:11.259Z,2.90
2023-03-31T00:59:39.853Z,2.90
2023-03-31T01:03:07.542Z,3.00
2023-03-31T01:06:32.168Z,3.87
2023-03-31T01:10:00.824Z,3.70
2023-03-31T01:13:25.915Z,2.93
2023-03-31T01:16:53.571Z,2.80
2023-03-31T01:20:26.105Z,2.70
2023-03-31T01:24:21.025Z,3.13
2023-03-31T01:27:55.244Z,2.80
2023-03-31T01:31:38.428Z,3.77
2023-03-31T01:35:31.027Z,3.90
2023-03-31T01:39:24.043Z,2.70
2023-03-31T01:42:56.478Z,2.60
2023-03-31T01:46:28.881Z,3.00
2023-03-31T01:49:59.681Z,2.23
2023-03-31T01:53:31.320Z,2.77
2023-03-31T01:56:59.977Z,2.43
2023-03-31T02:00:33.314Z,2.33
2023-03-31T02:03:59.659Z,3.07
2023-03-31T02:07:28.133Z,3.30
2023-03-31T02:10:53.462Z,3.17
2023-03-31T02:14:22.775Z,2.80
2023-03-31T02:17:52.606Z,2.30
2023-03-31T02:21:17.084Z,2.60
2023-03-31T02:24:42.379Z,2.43
2023-03-31T02:28:10.650Z,2.73
2023-03-31T02:31:45.221Z,2.73
2023-03-31T02:35:16.123Z,2.90
2023-03-31T02:38:45.027Z,2.73
2023-03-31T02:42:08.982Z,2.50
2023-03-31T02:45:42.183Z,2.67
2023-03-31T02:49:09.950Z,2.90
2023-03-31T02:52:58.576Z,2.77
2023-03-31T02:56:45.548Z,3.53
2023-03-31T03:00:21.299Z,2.97
2023-03-31T03:03:54.247Z,2.50
2023-03-31T03:07:24.948Z,2.93
2023-03-31T03:11:11.575Z,3.03
2023-03-31T03:14:42.130Z,3.07
2023-03-31T03:18:07.433Z,3.00
2023-03-31T03:21:31.671Z,2.90
2023-03-31T03:24:55.845Z,2.57
2023-03-31T03:28:20.951Z,2.47
2023-03-31T03:31:44.578Z,2.60
2023-03-31T03:35:08.746Z,2.73
2023-03-31T03:38:32.467Z,3.33
2023-03-31T03:41:56.047Z,2.17
2023-03-31T03:45:20.953Z,2.10
2023-03-31T03:48:44.521Z,2.47
2023-03-31T03:52:08.478Z,2.53
2023-03-31T03:55:32.124Z,2.23
2023-03-31T03:58:56.104Z,2.57
2023-03-31T04:02:21.055Z,2.63
2023-03-31T04:05:44.697Z,2.80
2023-03-31T04:09:08.635Z,2.93
2023-03-31T04:12:32.196Z,2.33
2023-03-31T04:15:56.084Z,2.50
2023-03-31T04:19:21.792Z,3.00
2023-03-31T04:22:46.920Z,2.50
2023-03-31T04:26:10.684Z,3.37
2023-03-31T04:29:37.184Z,3.37
2023-03-31T04:33:02.754Z,3.00
2023-03-31T04:36:28.988Z,3.07
2023-03-31T04:39:54.589Z,2.70
2023-03-31T04:43:19.736Z,3.20
2023-03-31T04:46:43.310Z,2.77
2023-03-31T04:50:09.131Z,2.30
2023-03-31T04:53:36.491Z,2.90
2023-03-31T04:57:00.236Z,3.43
2023-03-31T05:00:24.482Z,2.50
2023-03-31T05:03:48.508Z,2.90
2023-03-31T05:07:12.173Z,2.37
2023-03-31T05:10:38.226Z,2.60
2023-03-31T05:14:01.770Z,2.30
2023-03-31T05:17:25.518Z,2.67
2023-03-31T05:20:49.290Z,3.90
2023-03-31T05:24:12.986Z,3.60
2023-03-31T05:27:37.950Z,2.90
2023-03-31T05:31:02.725Z,2.90
2023-03-31T05:34:26.362Z,2.73
2023-03-31T05:37:49.912Z,2.80
2023-03-31T05:41:13.642Z,2.77
2023-03-31T05:44:38.662Z,3.10
2023-03-31T05:48:02.637Z,2.70
2023-03-31T05:51:26.451Z,2.30
2023-03-31T05:54:50.218Z,2.67
2023-03-31T05:58:14.031Z,2.50
2023-03-31T06:01:39.457Z,2.20
2023-03-31T06:05:03.871Z,2.73
2023-03-31T06:08:27.474Z,2.70
2023-03-31T06:11:51.192Z,2.17
2023-03-31T06:15:15.122Z,2.13
2023-03-31T06:18:40.667Z,2.97
2023-03-31T06:22:04.569Z,2.50
2023-03-31T06:25:30.754Z,2.10
2023-03-31T06:29:00.982Z,2.50
2023-03-31T06:32:24.656Z,2.53
2023-03-31T06:35:49.711Z,2.47
2023-03-31T06:39:13.392Z,2.07
2023-03-31T06:42:37.018Z,2.27
2023-03-31T06:46:00.843Z,2.30
2023-03-31T06:49:24.533Z,2.60
2023-03-31T06:52:52.667Z,2.60
2023-03-31T06:56:16.727Z,3.13
2023-03-31T06:59:40.591Z,2.30
2023-03-31T07:03:11.408Z,2.20
2023-03-31T07:06:38.535Z,1.93
2023-03-31T07:10:03.941Z,2.60
2023-03-31T07:13:28.808Z,2.37
2023-03-31T07:16:53.277Z,2.33
2023-03-31T07:20:18.468Z,3.13
2023-03-31T07:23:42.172Z,3.07
2023-03-31T07:27:07.519Z,2.13
2023-03-31T07:30:36.370Z,2.30
2023-03-31T07:34:00.017Z,2.50
2023-03-31T07:37:24.466Z,3.57
2023-03-31T07:40:58.583Z,2.40
2023-03-31T07:44:33.655Z,2.20
2023-03-31T07:47:57.570Z,1.90
2023-03-31T07:51:23.485Z,2.30
2023-03-31T07:54:53.156Z,2.33
2023-03-31T07:58:17.203Z,2.03
2023-03-31T08:01:42.798Z,2.07
2023-03-31T08:05:08.703Z,1.90
2023-03-31T08:08:33.815Z,2.17
2023-03-31T08:11:58.338Z,2.00
2023-03-31T08:15:22.395Z,1.73
2023-03-31T08:18:50.180Z,2.20
2023-03-31T08:22:13.950Z,2.13
2023-03-31T08:25:38.437Z,2.27
2023-03-31T08:29:04.565Z,2.00
2023-03-31T08:32:29.341Z,1.70
2023-03-31T08:35:54.622Z,1.77
2023-03-31T08:39:19.376Z,2.23
2023-03-31T08:42:47.535Z,2.00
2023-03-31T08:46:15.219Z,2.20
2023-03-31T08:49:45.168Z,1.90
2023-03-31T08:53:21.637Z,2.33
2023-03-31T08:56:50.129Z,2.37
2023-03-31T09:00:17.909Z,1.73
2023-03-31T09:03:53.586Z,1.90
2023-03-31T09:07:23.376Z,1.80
2023-03-31T09:10:56.458Z,1.47
2023-03-31T09:14:29.654Z,1.63
2023-03-31T09:17:55.826Z,1.40
2023-03-31T09:21:25.373Z,1.70
2023-03-31T09:24:59.014Z,1.50
2023-03-31T09:28:30.979Z,1.30
2023-03-31T09:31:56.188Z,1.43
2023-03-31T09:35:23.393Z,1.50
2023-03-31T09:38:48.236Z,1.23
2023-03-31T09:42:14.939Z,2.43
2023-03-31T09:45:40.943Z,1.83
2023-03-31T09:49:12.442Z,1.60
2023-03-31T09:52:40.969Z,1.50
2023-03-31T09:56:08.468Z,1.50
2023-03-31T09:59:35.236Z,1.20
2023-03-31T10:03:07.973Z,1.47
2023-03-31T10:06:32.411Z,1.47
2023-03-31T10:09:57.316Z,1.27
2023-03-31T10:13:24.050Z,1.43
2023-03-31T10:16:51.577Z,1.43
2023-03-31T10:20:33.497Z,1.37
2023-03-31T10:24:01.342Z,1.67
2023-03-31T10:27:29.068Z,1.83
2023-03-31T10:30:55.193Z,1.50
2023-03-31T10:34:20.544Z,1.40
2023-03-31T10:37:45.814Z,1.80
2023-03-31T10:41:10.583Z,1.67
2023-03-31T10:44:36.905Z,1.70
2023-03-31T10:48:02.318Z,1.87
2023-03-31T10:51:28.599Z,2.17
2023-03-31T10:54:57.466Z,2.40
2023-03-31T10:58:35.264Z,2.00
2023-03-31T11:02:23.456Z,2.43
2023-03-31T11:05:52.414Z,2.10
2023-03-31T11:09:33.394Z,3.30
2023-03-31T11:13:02.417Z,3.83
2023-03-31T11:16:35.241Z,2.83
2023-03-31T11:20:13.132Z,3.10
2023-03-31T11:23:43.539Z,3.07
2023-03-31T11:27:27.196Z,4.97
2023-03-31T11:31:00.136Z,2.77
2023-03-31T11:34:41.371Z,2.77
2023-03-31T11:38:31.699Z,3.27
2023-03-31T11:41:59.680Z,4.20
2023-03-31T11:45:29.627Z,2.67
2023-03-31T11:48:59.671Z,4.57
2023-03-31T11:52:30.736Z,3.10
2023-03-31T11:55:56.613Z,2.87
2023-03-31T11:59:22.388Z,3.67
2023-03-31T12:02:52.958Z,3.70
2023-03-31T12:06:23.165Z,3.23
2023-03-31T12:10:05.924Z,3.23
2023-03-31T12:13:41.815Z,3.13
2023-03-31T12:17:12.607Z,3.50
2023-03-31T12:20:41.190Z,3.87
2023-03-31T12:24:16.630Z,3.80
2023-03-31T12:27:46.781Z,3.07
2023-03-31T12:31:23.717Z,3.63
2023-03-31T12:35:01.064Z,4.67
2023-03-31T12:38:42.544Z,4.40
2023-03-31T12:42:40.906Z,5.00
2023-03-31T12:46:25.432Z,3.60
2023-03-31T12:50:11.930Z,3.60
2023-03-31T12:53:47.745Z,4.57
2023-03-31T12:57:24.629Z,4.93
2023-03-31T13:01:06.547Z,4.33
2023-03-31T13:04:33.886Z,4.37
2023-03-31T13:08:06.200Z,4.50
2023-03-31T13:11:42.481Z,4.57
2023-03-31T13:15:15.874Z,4.17
2023-03-31T13:18:43.607Z,3.83
2023-03-31T13:22:08.151Z,4.20
2023-03-31T13:25:42.798Z,3.77
2023-03-31T13:29:42.028Z,3.37
2023-03-31T13:33:13.915Z,3.57
2023-03-31T13:37:18.687Z,2.90
2023-03-31T13:41:08.967Z,3.30
2023-03-31T13:45:02.748Z,3.30
2023-03-31T13:48:39.236Z,3.50
2023-03-31T13:52:12.325Z,4.07
2023-03-31T13:56:19.341Z,3.30
2023-03-31T14:00:29.322Z,2.60
2023-03-31T14:04:44.116Z,2.57
2023-03-31T14:08:12.736Z,2.83
2023-03-31T14:11:38.153Z,2.90
2023-03-31T14:15:11.222Z,3.40
2023-03-31T14:18:39.174Z,2.77
2023-03-31T14:22:15.602Z,2.87
2023-03-31T14:25:50.698Z,3.50
2023-03-31T14:29:23.446Z,3.53
2023-03-31T14:33:17.664Z,3.93
2023-03-31T14:36:53.618Z,3.03
2023-03-31T14:40:22.089Z,2.50
2023-03-31T14:43:55.320Z,2.80
2023-03-31T14:47:24.077Z,3.00
2023-03-31T14:50:51.873Z,3.47
2023-03-31T14:54:19.302Z,3.17
2023-03-31T14:57:47.892Z,2.97
2023-03-31T15:01:22.294Z,2.90
2023-03-31T15:04:55.073Z,3.40
2023-03-31T15:08:25.446Z,3.80
2023-03-31T15:11:57.367Z,3.23
2023-03-31T15:15:30.345Z,4.00
2023-03-31T15:18:55.767Z,3.33
2023-03-31T15:22:24.476Z,2.97
2023-03-31T15:25:48.403Z,2.87
2023-03-31T15:29:18.382Z,3.30
2023-03-31T15:32:43.795Z,2.83
2023-03-31T15:36:08.633Z,2.97
2023-03-31T15:39:34.864Z,3.20
2023-03-31T15:46:57.751Z,3.07
2023-03-31T15:50:24.678Z,3.70
2023-03-31T15:53:50.851Z,2.43
2023-03-31T15:57:19.541Z,3.23
2023-03-31T16:00:47.212Z,3.47
2023-03-31T16:04:13.421Z,3.60
2023-03-31T16:07:41.536Z,2.50
2023-03-31T16:11:11.039Z,2.80
2023-03-31T16:14:38.402Z,3.03
2023-03-31T16:18:07.212Z,3.33
2023-03-31T16:21:36.336Z,3.50
2023-03-31T16:25:01.682Z,3.60
2023-03-31T16:28:28.737Z,3.50
2023-03-31T16:32:09.542Z,2.93
2023-03-31T16:35:34.954Z,3.40
2023-03-31T16:39:00.300Z,3.63
2023-03-31T16:42:27.125Z,3.00
2023-03-31T16:45:52.429Z,2.90
2023-03-31T16:49:16.222Z,3.13
2023-03-31T16:52:40.202Z,3.60
2023-03-31T16:56:04.552Z,2.80
2023-03-31T16:59:29.563Z,3.60
2023-03-31T17:02:53.276Z,3.80
2023-03-31T17:06:17.087Z,3.53
2023-03-31T17:09:40.698Z,3.40
2023-03-31T17:13:04.472Z,3.40
2023-03-31T17:16:40.741Z,3.20
2023-03-31T17:20:12.517Z,2.50
2023-03-31T17:23:37.192Z,2.70
2023-03-31T17:27:00.999Z,2.90
2023-03-31T17:30:25.040Z,3.07
2023-03-31T17:33:50.397Z,2.67
2023-03-31T17:37:14.216Z,2.07
2023-03-31T17:40:38.192Z,2.43
2023-03-31T17:44:02.340Z,2.40
2023-03-31T17:47:27.022Z,3.00
2023-03-31T17:50:52.879Z,2.27
2023-03-31T17:54:16.754Z,2.47
2023-03-31T17:57:40.620Z,2.30
2023-03-31T18:01:05.942Z,1.90
2023-03-31T18:04:29.714Z,2.00
2023-03-31T18:07:55.429Z,1.83
2023-03-31T18:11:19.015Z,1.97
2023-03-31T18:14:42.621Z,1.80
2023-03-31T18:18:07.271Z,1.60
2023-03-31T18:21:31.026Z,1.70
2023-03-31T18:24:56.445Z,1.90
2023-03-31T18:28:20.788Z,2.40
2023-03-31T18:31:44.614Z,2.37
2023-03-31T18:35:09.035Z,2.03
2023-03-31T18:38:33.133Z,1.80
2023-03-31T18:41:59.526Z,1.80
2023-03-31T18:45:23.424Z,2.03
2023-03-31T18:48:48.627Z,1.60
2023-03-31T18:52:12.287Z,1.90
2023-03-31T18:55:36.262Z,1.83
2023-03-31T18:59:03.901Z,1.60
2023-03-31T19:02:29.304Z,1.80
2023-03-31T19:05:53.227Z,2.00
2023-03-31T19:09:17.183Z,1.90
2023-03-31T19:12:40.789Z,2.10
2023-03-31T19:16:06.278Z,2.57
2023-03-31T19:19:30.124Z,1.60
2023-03-31T19:22:54.443Z,1.83
2023-03-31T19:26:19.640Z,2.03
2023-03-31T19:29:43.247Z,2.20
2023-03-31T19:33:08.488Z,2.13
2023-03-31T19:36:32.542Z,2.00
2023-03-31T19:39:56.491Z,2.13
2023-03-31T19:43:22.992Z,1.80
2023-03-31T19:46:48.090Z,2.20
2023-03-31T19:50:13.819Z,1.80
2023-03-31T19:53:39.542Z,2.20
2023-03-31T19:57:03.285Z,2.40
2023-03-31T20:00:27.078Z,2.27
2023-03-31T20:03:53.052Z,3.00
2023-03-31T20:07:18.730Z,2.40
2023-03-31T20:10:42.878Z,2.40
2023-03-31T20:14:07.464Z,2.57
2023-03-31T20:17:31.250Z,2.50
2023-03-31T20:21:04.328Z,2.47
2023-03-31T20:24:29.411Z,2.23
2023-03-31T20:27:53.061Z,1.90
2023-03-31T20:31:19.171Z,1.83
2023-03-31T20:34:42.961Z,1.67
2023-03-31T20:38:06.628Z,2.57
2023-03-31T20:41:31.823Z,2.00
2023-03-31T20:44:55.608Z,2.20
2023-03-31T20:48:19.810Z,2.30
2023-03-31T20:51:45.192Z,2.20
2023-03-31T20:55:09.818Z,2.70
2023-03-31T20:58:34.819Z,2.30
2023-03-31T21:01:59.789Z,2.73
2023-03-31T21:05:23.398Z,2.70
2023-03-31T21:08:51.557Z,2.27
2023-03-31T21:12:15.231Z,2.73
2023-03-31T21:15:40.851Z,2.47
2023-03-31T21:19:04.642Z,2.63
2023-03-31T21:22:28.528Z,2.50
2023-03-31T21:25:54.449Z,3.70
2023-03-31T21:29:18.339Z,3.10
2023-03-31T21:32:43.573Z,3.60
2023-03-31T21:36:09.474Z,3.27
2023-03-31T21:39:33.234Z,3.70
2023-03-31T21:42:57.122Z,2.50
2023-03-31T21:46:23.367Z,3.03
2023-03-31T21:49:48.445Z,2.50
2023-03-31T21:53:12.090Z,2.80
2023-03-31T21:56:35.945Z,2.30
2023-03-31T21:59:59.571Z,3.00
2023-03-31T22:03:27.493Z,3.60
2023-03-31T22:06:53.096Z,3.03
2023-03-31T22:10:16.907Z,2.90
2023-03-31T22:13:40.773Z,3.27
2023-03-31T22:17:04.615Z,2.10
2023-03-31T22:20:28.267Z,2.80
2023-03-31T22:23:54.170Z,2.20
2023-03-31T22:27:17.826Z,2.07
2023-03-31T22:30:41.876Z,1.90
2023-03-31T22:34:05.446Z,2.10
2023-03-31T22:37:29.229Z,2.20
2023-03-31T22:40:54.791Z,1.67
2023-03-31T22:44:18.700Z,1.40
2023-03-31T22:47:43.054Z,1.50
2023-03-31T22:51:08.489Z,1.93
2023-03-31T22:54:32.806Z,2.20
2023-03-31T22:57:57.977Z,2.00
2023-03-31T23:01:22.494Z,1.90
2023-03-31T23:04:46.163Z,1.70
2023-03-31T23:08:09.917Z,1.80
2023-03-31T23:11:34.016Z,2.00
2023-03-31T23:14:59.161Z,2.10
2023-03-31T23:18:25.617Z,1.83
2023-03-31T23:21:49.484Z,2.53
2023-03-31T23:25:13.304Z,2.00
2023-03-31T23:28:38.093Z,1.90
2023-03-31T23:32:03.741Z,1.60
2023-03-31T23:35:27.372Z,2.00
2023-03-31T23:38:52.564Z,2.30
2023-03-31T23:42:20.368Z,3.53
2023-03-31T23:45:44.583Z,1.93
2023-03-31T23:49:09.653Z,2.17
2023-03-31T23:52:36.160Z,1.97
2023-03-31T23:56:02.719Z,2.00
2023-03-31T23:59:29.288Z,1.67
